sensor_id;sensor_type;location;lat;lon;timestamp;noise_LAeq;noise_LA_min;noise_LA_max;noise_LA01;noise_LA95
64077;Laerm;51039;49.696;10.808;2022-12-28T00:01:44;34.05;32.89;35.32;;
64077;Laerm;51039;49.696;10.808;2022-12-28T00:04:12;34.05;32.89;35.19;;
64077;Laerm;51039;49.696;10.808;2022-12-28T00:06:38;34.04;32.87;35.14;;
64077;Laerm;51039;49.696;10.808;2022-12-28T00:09:03;34.05;32.67;35.20;;
64077;Laerm;51039;49.696;10.808;2022-12-28T00:11:28;34.02;32.94;35.23;;
64077;Laerm;51039;49.696;10.808;2022-12-28T00:13:55;34.00;32.91;35.18;;
64077;Laerm;51039;49.696;10.808;2022-12-28T00:16:35;33.97;32.83;35.03;;
64077;Laerm;51039;49.696;10.808;2022-12-28T00:19:03;33.95;32.80;35.01;;
64077;Laerm;51039;49.696;10.808;2022-12-28T00:21:29;33.94;32.83;35.03;;
64077;Laerm;51039;49.696;10.808;2022-12-28T00:23:57;33.94;32.74;35.25;;
64077;Laerm;51039;49.696;10.808;2022-12-28T00:26:23;33.95;32.60;34.98;;
64077;Laerm;51039;49.696;10.808;2022-12-28T00:28:49;33.97;32.80;34.98;;
64077;Laerm;51039;49.696;10.808;2022-12-28T00:31:15;33.99;32.81;35.02;;
64077;Laerm;51039;49.696;10.808;2022-12-28T00:33:41;34.00;32.60;35.16;;
64077;Laerm;51039;49.696;10.808;2022-12-28T00:36:06;34.02;32.98;35.04;;
64077;Laerm;51039;49.696;10.808;2022-12-28T00:38:34;34.04;32.86;35.13;;
64077;Laerm;51039;49.696;10.808;2022-12-28T00:40:59;34.07;32.81;35.13;;
64077;Laerm;51039;49.696;10.808;2022-12-28T00:43:25;34.10;32.87;35.20;;
64077;Laerm;51039;49.696;10.808;2022-12-28T00:45:51;34.12;32.92;35.13;;
64077;Laerm;51039;49.696;10.808;2022-12-28T00:48:16;34.15;32.96;35.18;;
64077;Laerm;51039;49.696;10.808;2022-12-28T00:50:42;34.16;32.94;35.22;;
64077;Laerm;51039;49.696;10.808;2022-12-28T00:53:09;34.16;33.07;35.15;;
64077;Laerm;51039;49.696;10.808;2022-12-28T00:55:35;34.18;33.05;35.28;;
64077;Laerm;51039;49.696;10.808;2022-12-28T00:58:01;34.17;32.83;35.74;;
64077;Laerm;51039;49.696;10.808;2022-12-28T01:00:27;34.17;32.97;35.31;;
64077;Laerm;51039;49.696;10.808;2022-12-28T01:02:52;34.19;32.94;35.24;;
64077;Laerm;51039;49.696;10.808;2022-12-28T01:05:19;34.17;32.90;35.34;;
64077;Laerm;51039;49.696;10.808;2022-12-28T01:07:44;34.17;32.94;35.47;;
64077;Laerm;51039;49.696;10.808;2022-12-28T01:10:09;34.17;32.86;35.29;;
64077;Laerm;51039;49.696;10.808;2022-12-28T01:12:35;34.16;32.85;35.18;;
64077;Laerm;51039;49.696;10.808;2022-12-28T01:15:01;34.17;33.03;35.25;;
64077;Laerm;51039;49.696;10.808;2022-12-28T01:17:26;34.16;33.08;35.21;;
64077;Laerm;51039;49.696;10.808;2022-12-28T01:19:52;34.16;32.98;35.18;;
64077;Laerm;51039;49.696;10.808;2022-12-28T01:22:17;34.15;32.86;35.33;;
64077;Laerm;51039;49.696;10.808;2022-12-28T01:24:42;34.15;32.91;35.25;;
64077;Laerm;51039;49.696;10.808;2022-12-28T01:27:07;34.15;32.72;35.25;;
64077;Laerm;51039;49.696;10.808;2022-12-28T01:29:33;34.15;32.97;35.56;;
64077;Laerm;51039;49.696;10.808;2022-12-28T01:31:58;34.14;32.81;35.32;;
64077;Laerm;51039;49.696;10.808;2022-12-28T01:34:23;34.13;33.04;35.29;;
64077;Laerm;51039;49.696;10.808;2022-12-28T01:36:49;34.15;32.98;35.26;;
64077;Laerm;51039;49.696;10.808;2022-12-28T01:39:14;34.14;32.75;35.29;;
64077;Laerm;51039;49.696;10.808;2022-12-28T01:41:40;34.14;33.10;35.28;;
64077;Laerm;51039;49.696;10.808;2022-12-28T01:46:54;34.15;32.86;35.40;;
64077;Laerm;51039;49.696;10.808;2022-12-28T01:49:25;34.14;32.69;35.23;;
64077;Laerm;51039;49.696;10.808;2022-12-28T01:52:09;34.13;32.91;35.15;;
64077;Laerm;51039;49.696;10.808;2022-12-28T01:54:48;34.10;32.62;35.32;;
64077;Laerm;51039;49.696;10.808;2022-12-28T01:57:17;34.09;32.88;35.12;;
64077;Laerm;51039;49.696;10.808;2022-12-28T01:59:50;34.09;32.72;35.37;;
64077;Laerm;51039;49.696;10.808;2022-12-28T02:02:17;34.07;32.86;35.18;;
64077;Laerm;51039;49.696;10.808;2022-12-28T02:04:44;34.05;32.58;35.15;;
64077;Laerm;51039;49.696;10.808;2022-12-28T02:07:11;34.05;32.76;35.27;;
64077;Laerm;51039;49.696;10.808;2022-12-28T02:09:39;34.03;32.76;35.15;;
64077;Laerm;51039;49.696;10.808;2022-12-28T02:12:11;34.03;32.70;35.17;;
64077;Laerm;51039;49.696;10.808;2022-12-28T02:14:38;34.02;32.87;35.03;;
64077;Laerm;51039;49.696;10.808;2022-12-28T02:17:07;33.99;32.81;35.06;;
64077;Laerm;51039;49.696;10.808;2022-12-28T02:19:43;34.00;32.82;35.13;;
64077;Laerm;51039;49.696;10.808;2022-12-28T02:28:00;33.95;32.80;35.03;;
64077;Laerm;51039;49.696;10.808;2022-12-28T02:30:34;33.93;32.53;34.95;;
64077;Laerm;51039;49.696;10.808;2022-12-28T02:33:16;33.91;32.56;35.04;;
64077;Laerm;51039;49.696;10.808;2022-12-28T02:35:48;33.92;32.73;34.96;;
64077;Laerm;51039;49.696;10.808;2022-12-28T02:41:00;33.90;32.75;34.95;;
64077;Laerm;51039;49.696;10.808;2022-12-28T02:43:27;33.90;32.79;35.11;;
64077;Laerm;51039;49.696;10.808;2022-12-28T02:45:52;33.90;32.75;35.04;;
64077;Laerm;51039;49.696;10.808;2022-12-28T02:48:45;33.90;32.68;34.99;;
64077;Laerm;51039;49.696;10.808;2022-12-28T02:57:29;33.92;32.72;34.94;;
64077;Laerm;51039;49.696;10.808;2022-12-28T03:00:03;33.92;32.82;35.05;;
64077;Laerm;51039;49.696;10.808;2022-12-28T03:05:12;33.93;32.78;35.19;;
64077;Laerm;51039;49.696;10.808;2022-12-28T03:08:06;33.94;32.81;35.14;;
64077;Laerm;51039;49.696;10.808;2022-12-28T03:13:33;33.97;32.89;34.99;;
64077;Laerm;51039;49.696;10.808;2022-12-28T03:16:20;33.99;32.86;35.18;;
64077;Laerm;51039;49.696;10.808;2022-12-28T03:18:50;34.00;32.86;35.06;;
64077;Laerm;51039;49.696;10.808;2022-12-28T03:21:36;34.00;32.84;35.09;;
64077;Laerm;51039;49.696;10.808;2022-12-28T03:24:21;34.00;32.76;35.21;;
64077;Laerm;51039;49.696;10.808;2022-12-28T03:27:08;34.03;32.83;35.25;;
64077;Laerm;51039;49.696;10.808;2022-12-28T03:30:17;34.05;32.77;35.15;;
64077;Laerm;51039;49.696;10.808;2022-12-28T03:33:02;34.09;32.89;35.07;;
64077;Laerm;51039;49.696;10.808;2022-12-28T03:35:41;34.11;33.05;35.25;;
64077;Laerm;51039;49.696;10.808;2022-12-28T03:38:10;34.13;32.88;35.43;;
64077;Laerm;51039;49.696;10.808;2022-12-28T03:40:48;34.15;32.97;35.32;;
64077;Laerm;51039;49.696;10.808;2022-12-28T03:43:20;34.17;33.03;35.29;;
64077;Laerm;51039;49.696;10.808;2022-12-28T03:46:44;34.18;32.88;35.48;;
64077;Laerm;51039;49.696;10.808;2022-12-28T03:49:12;34.21;32.92;35.21;;
64077;Laerm;51039;49.696;10.808;2022-12-28T03:51:39;34.23;33.05;35.67;;
64077;Laerm;51039;49.696;10.808;2022-12-28T03:54:05;34.25;32.92;35.40;;
64077;Laerm;51039;49.696;10.808;2022-12-28T03:56:30;34.26;33.16;35.25;;
64077;Laerm;51039;49.696;10.808;2022-12-28T03:58:56;34.30;33.08;35.40;;
64077;Laerm;51039;49.696;10.808;2022-12-28T04:01:22;34.32;33.14;35.39;;
64077;Laerm;51039;49.696;10.808;2022-12-28T04:03:47;34.36;33.23;35.53;;
64077;Laerm;51039;49.696;10.808;2022-12-28T04:06:14;34.41;33.23;35.57;;
64077;Laerm;51039;49.696;10.808;2022-12-28T04:08:41;34.47;33.25;35.66;;
64077;Laerm;51039;49.696;10.808;2022-12-28T04:11:08;34.55;33.27;35.70;;
64077;Laerm;51039;49.696;10.808;2022-12-28T04:13:34;34.61;33.35;35.81;;
64077;Laerm;51039;49.696;10.808;2022-12-28T04:16:11;34.67;33.41;35.98;;
64077;Laerm;51039;49.696;10.808;2022-12-28T04:18:38;34.72;33.58;35.74;;
64077;Laerm;51039;49.696;10.808;2022-12-28T04:21:03;34.76;33.67;35.80;;
64077;Laerm;51039;49.696;10.808;2022-12-28T04:23:30;34.80;33.67;35.99;;
64077;Laerm;51039;49.696;10.808;2022-12-28T04:26:06;34.86;33.46;36.14;;
64077;Laerm;51039;49.696;10.808;2022-12-28T04:28:33;34.93;33.82;36.02;;
64077;Laerm;51039;49.696;10.808;2022-12-28T04:30:59;34.99;33.77;36.07;;
64077;Laerm;51039;49.696;10.808;2022-12-28T04:33:25;35.06;34.05;36.13;;
64077;Laerm;51039;49.696;10.808;2022-12-28T04:35:51;35.15;33.82;36.35;;
64077;Laerm;51039;49.696;10.808;2022-12-28T04:38:17;35.22;34.10;36.39;;
64077;Laerm;51039;49.696;10.808;2022-12-28T04:40:43;35.31;33.82;36.39;;
64077;Laerm;51039;49.696;10.808;2022-12-28T04:43:09;35.42;34.34;36.63;;
64077;Laerm;51039;49.696;10.808;2022-12-28T04:45:34;35.52;34.18;36.53;;
64077;Laerm;51039;49.696;10.808;2022-12-28T04:48:00;35.64;34.56;36.95;;
64077;Laerm;51039;49.696;10.808;2022-12-28T04:50:26;35.78;34.52;37.00;;
64077;Laerm;51039;49.696;10.808;2022-12-28T04:52:51;35.90;34.74;36.95;;
64077;Laerm;51039;49.696;10.808;2022-12-28T04:55:16;36.02;34.61;37.14;;
64077;Laerm;51039;49.696;10.808;2022-12-28T04:57:42;36.09;34.94;37.26;;
64077;Laerm;51039;49.696;10.808;2022-12-28T05:00:08;36.12;34.99;37.36;;
64077;Laerm;51039;49.696;10.808;2022-12-28T05:02:34;36.17;35.07;37.24;;
64077;Laerm;51039;49.696;10.808;2022-12-28T05:04:59;36.23;34.86;37.32;;
64077;Laerm;51039;49.696;10.808;2022-12-28T05:07:24;36.29;34.97;37.45;;
64077;Laerm;51039;49.696;10.808;2022-12-28T05:09:49;36.35;35.13;37.52;;
64077;Laerm;51039;49.696;10.808;2022-12-28T05:12:15;36.44;35.17;37.54;;
64077;Laerm;51039;49.696;10.808;2022-12-28T05:14:40;36.56;35.10;37.65;;
64077;Laerm;51039;49.696;10.808;2022-12-28T05:17:06;36.71;35.47;37.78;;
64077;Laerm;51039;49.696;10.808;2022-12-28T05:19:31;36.89;35.66;38.18;;
64077;Laerm;51039;49.696;10.808;2022-12-28T05:21:56;37.12;36.11;38.30;;
64077;Laerm;51039;49.696;10.808;2022-12-28T05:24:22;37.36;35.89;38.74;;
64077;Laerm;51039;49.696;10.808;2022-12-28T05:26:47;37.58;36.44;38.84;;
64077;Laerm;51039;49.696;10.808;2022-12-28T05:29:12;37.77;36.64;38.89;;
64077;Laerm;51039;49.696;10.808;2022-12-28T05:31:38;37.94;36.87;39.28;;
64077;Laerm;51039;49.696;10.808;2022-12-28T05:34:03;38.07;36.93;39.33;;
64077;Laerm;51039;49.696;10.808;2022-12-28T05:36:28;38.21;36.81;39.29;;
64077;Laerm;51039;49.696;10.808;2022-12-28T05:38:54;38.32;37.23;39.37;;
64077;Laerm;51039;49.696;10.808;2022-12-28T05:41:23;38.41;37.32;39.63;;
64077;Laerm;51039;49.696;10.808;2022-12-28T05:43:49;38.48;37.29;39.64;;
64077;Laerm;51039;49.696;10.808;2022-12-28T05:46:18;38.53;37.32;39.91;;
64077;Laerm;51039;49.696;10.808;2022-12-28T05:48:44;38.57;37.46;39.71;;
64077;Laerm;51039;49.696;10.808;2022-12-28T05:51:13;38.63;37.33;40.02;;
64077;Laerm;51039;49.696;10.808;2022-12-28T05:53:39;38.65;37.17;39.75;;
64077;Laerm;51039;49.696;10.808;2022-12-28T05:58:35;38.73;37.50;39.73;;
64077;Laerm;51039;49.696;10.808;2022-12-28T06:03:29;38.84;37.73;39.93;;
64077;Laerm;51039;49.696;10.808;2022-12-28T06:05:54;38.85;37.80;40.15;;
64077;Laerm;51039;49.696;10.808;2022-12-28T06:08:20;38.87;37.65;40.14;;
64077;Laerm;51039;49.696;10.808;2022-12-28T06:10:45;38.84;37.67;39.82;;
64077;Laerm;51039;49.696;10.808;2022-12-28T06:13:10;38.83;37.56;39.89;;
64077;Laerm;51039;49.696;10.808;2022-12-28T06:15:35;38.81;37.61;39.96;;
64077;Laerm;51039;49.696;10.808;2022-12-28T06:18:01;38.80;37.49;39.92;;
64077;Laerm;51039;49.696;10.808;2022-12-28T06:20:26;38.80;37.69;39.94;;
64077;Laerm;51039;49.696;10.808;2022-12-28T06:22:51;38.79;37.60;39.97;;
64077;Laerm;51039;49.696;10.808;2022-12-28T06:25:17;38.81;37.65;39.98;;
64077;Laerm;51039;49.696;10.808;2022-12-28T06:27:42;38.84;37.63;39.87;;
64077;Laerm;51039;49.696;10.808;2022-12-28T06:30:08;38.88;37.66;39.98;;
64077;Laerm;51039;49.696;10.808;2022-12-28T06:32:33;38.93;37.61;40.21;;
64077;Laerm;51039;49.696;10.808;2022-12-28T06:34:59;39.00;37.47;40.25;;
64077;Laerm;51039;49.696;10.808;2022-12-28T06:37:24;39.08;37.98;40.16;;
64077;Laerm;51039;49.696;10.808;2022-12-28T06:39:49;39.15;37.84;40.30;;
64077;Laerm;51039;49.696;10.808;2022-12-28T06:42:14;39.24;37.70;40.48;;
64077;Laerm;51039;49.696;10.808;2022-12-28T06:44:40;39.30;37.77;40.54;;
64077;Laerm;51039;49.696;10.808;2022-12-28T06:47:05;39.36;37.89;40.40;;
64077;Laerm;51039;49.696;10.808;2022-12-28T06:49:30;39.43;38.16;40.57;;
64077;Laerm;51039;49.696;10.808;2022-12-28T06:51:55;39.47;38.16;40.49;;
64077;Laerm;51039;49.696;10.808;2022-12-28T06:54:21;39.49;38.23;40.61;;
64077;Laerm;51039;49.696;10.808;2022-12-28T06:56:46;39.54;38.48;40.51;;
64077;Laerm;51039;49.696;10.808;2022-12-28T06:59:11;39.54;38.27;40.64;;
64077;Laerm;51039;49.696;10.808;2022-12-28T07:01:39;39.55;38.41;40.71;;
64077;Laerm;51039;49.696;10.808;2022-12-28T07:04:06;39.53;38.37;40.60;;
64077;Laerm;51039;49.696;10.808;2022-12-28T07:06:38;39.53;38.45;40.80;;
64077;Laerm;51039;49.696;10.808;2022-12-28T07:09:06;39.50;38.35;40.57;;
64077;Laerm;51039;49.696;10.808;2022-12-28T07:11:32;39.53;38.42;40.68;;
64077;Laerm;51039;49.696;10.808;2022-12-28T07:13:58;39.57;38.34;40.73;;
64077;Laerm;51039;49.696;10.808;2022-12-28T07:16:24;39.58;38.39;40.82;;
64077;Laerm;51039;49.696;10.808;2022-12-28T07:18:50;39.62;38.08;40.77;;
64077;Laerm;51039;49.696;10.808;2022-12-28T07:21:21;39.65;38.50;40.68;;
64077;Laerm;51039;49.696;10.808;2022-12-28T07:23:48;39.63;38.09;40.81;;
64077;Laerm;51039;49.696;10.808;2022-12-28T07:26:40;39.61;38.13;40.74;;
64077;Laerm;51039;49.696;10.808;2022-12-28T07:29:07;39.64;38.48;40.80;;
64077;Laerm;51039;49.696;10.808;2022-12-28T07:31:37;39.67;38.49;41.24;;
64077;Laerm;51039;49.696;10.808;2022-12-28T07:34:03;39.70;38.58;40.86;;
64077;Laerm;51039;49.696;10.808;2022-12-28T07:36:30;39.71;38.46;40.86;;
64077;Laerm;51039;49.696;10.808;2022-12-28T07:38:56;39.72;38.30;40.96;;
64077;Laerm;51039;49.696;10.808;2022-12-28T07:41:30;39.74;38.39;41.15;;
64077;Laerm;51039;49.696;10.808;2022-12-28T07:43:57;39.76;38.45;41.05;;
64077;Laerm;51039;49.696;10.808;2022-12-28T07:46:25;39.77;38.54;40.98;;
64077;Laerm;51039;49.696;10.808;2022-12-28T07:48:51;39.82;38.58;41.02;;
64077;Laerm;51039;49.696;10.808;2022-12-28T07:51:25;39.85;38.48;41.07;;
64077;Laerm;51039;49.696;10.808;2022-12-28T07:53:54;39.89;38.61;41.26;;
64077;Laerm;51039;49.696;10.808;2022-12-28T07:56:21;39.94;38.66;41.16;;
64077;Laerm;51039;49.696;10.808;2022-12-28T07:58:54;39.98;38.61;41.21;;
64077;Laerm;51039;49.696;10.808;2022-12-28T08:01:21;40.00;38.80;41.12;;
64077;Laerm;51039;49.696;10.808;2022-12-28T08:03:47;40.01;38.76;41.33;;
64077;Laerm;51039;49.696;10.808;2022-12-28T08:06:17;40.03;38.83;41.53;;
64077;Laerm;51039;49.696;10.808;2022-12-28T08:08:45;40.07;38.62;41.24;;
64077;Laerm;51039;49.696;10.808;2022-12-28T08:11:16;40.09;38.65;41.36;;
64077;Laerm;51039;49.696;10.808;2022-12-28T08:13:44;40.11;38.81;41.35;;
64077;Laerm;51039;49.696;10.808;2022-12-28T08:16:11;40.15;38.68;41.58;;
64077;Laerm;51039;49.696;10.808;2022-12-28T08:18:38;40.11;38.68;41.43;;
64077;Laerm;51039;49.696;10.808;2022-12-28T08:21:07;40.15;38.86;41.50;;
64077;Laerm;51039;49.696;10.808;2022-12-28T08:23:34;40.19;38.95;41.35;;
64077;Laerm;51039;49.696;10.808;2022-12-28T08:26:11;40.25;38.89;41.52;;
64077;Laerm;51039;49.696;10.808;2022-12-28T08:28:38;40.29;38.68;41.69;;
64077;Laerm;51039;49.696;10.808;2022-12-28T08:31:06;40.35;39.11;41.46;;
64077;Laerm;51039;49.696;10.808;2022-12-28T08:33:31;40.39;39.07;41.53;;
64077;Laerm;51039;49.696;10.808;2022-12-28T08:35:57;40.40;39.08;41.46;;
64077;Laerm;51039;49.696;10.808;2022-12-28T08:38:22;40.41;39.16;41.59;;
64077;Laerm;51039;49.696;10.808;2022-12-28T08:40:57;40.42;39.24;41.82;;
64077;Laerm;51039;49.696;10.808;2022-12-28T08:43:23;40.43;39.22;41.69;;
64077;Laerm;51039;49.696;10.808;2022-12-28T08:46:21;40.42;39.00;41.62;;
64077;Laerm;51039;49.696;10.808;2022-12-28T08:48:45;40.42;39.16;41.79;;
64077;Laerm;51039;49.696;10.808;2022-12-28T08:53:38;40.42;39.10;41.73;;
64077;Laerm;51039;49.696;10.808;2022-12-28T08:56:08;40.42;39.00;41.62;;
64077;Laerm;51039;49.696;10.808;2022-12-28T08:58:37;40.40;38.85;41.64;;
64077;Laerm;51039;49.696;10.808;2022-12-28T09:01:07;40.39;39.01;41.75;;
64077;Laerm;51039;49.696;10.808;2022-12-28T09:03:37;40.39;39.05;41.71;;
64077;Laerm;51039;49.696;10.808;2022-12-28T09:06:05;40.37;39.02;41.77;;
64077;Laerm;51039;49.696;10.808;2022-12-28T09:08:30;40.36;39.06;41.55;;
64077;Laerm;51039;49.696;10.808;2022-12-28T09:11:05;40.35;38.89;41.63;;
64077;Laerm;51039;49.696;10.808;2022-12-28T09:13:32;40.33;38.95;41.52;;
64077;Laerm;51039;49.696;10.808;2022-12-28T09:16:03;40.33;38.90;41.61;;
64077;Laerm;51039;49.696;10.808;2022-12-28T09:18:30;40.29;39.03;41.46;;
64077;Laerm;51039;49.696;10.808;2022-12-28T09:20:55;40.30;38.42;41.70;;
64077;Laerm;51039;49.696;10.808;2022-12-28T09:23:21;40.26;39.04;41.46;;
64077;Laerm;51039;49.696;10.808;2022-12-28T09:25:46;40.19;38.74;41.66;;
64077;Laerm;51039;49.696;10.808;2022-12-28T09:28:11;40.09;38.72;41.33;;
64077;Laerm;51039;49.696;10.808;2022-12-28T09:30:37;40.04;38.55;41.33;;
64077;Laerm;51039;49.696;10.808;2022-12-28T09:33:02;40.00;38.32;41.39;;
64077;Laerm;51039;49.696;10.808;2022-12-28T09:35:46;39.95;38.45;41.38;;
64077;Laerm;51039;49.696;10.808;2022-12-28T09:38:11;39.89;38.54;41.04;;
64077;Laerm;51039;49.696;10.808;2022-12-28T09:40:37;39.88;38.54;41.06;;
64077;Laerm;51039;49.696;10.808;2022-12-28T09:43:03;39.87;38.56;41.11;;
64077;Laerm;51039;49.696;10.808;2022-12-28T09:45:31;39.88;38.62;41.27;;
64077;Laerm;51039;49.696;10.808;2022-12-28T09:48:05;39.87;38.36;41.31;;
64077;Laerm;51039;49.696;10.808;2022-12-28T09:50:32;39.85;38.17;41.03;;
64077;Laerm;51039;49.696;10.808;2022-12-28T09:55:32;39.83;38.29;41.06;;
64077;Laerm;51039;49.696;10.808;2022-12-28T09:57:58;39.77;38.43;41.04;;
64077;Laerm;51039;49.696;10.808;2022-12-28T10:00:26;39.78;38.42;41.23;;
64077;Laerm;51039;49.696;10.808;2022-12-28T10:02:59;39.67;38.15;41.01;;
64077;Laerm;51039;49.696;10.808;2022-12-28T10:05:25;39.54;38.31;40.69;;
64077;Laerm;51039;49.696;10.808;2022-12-28T10:07:52;39.30;37.12;40.61;;
64077;Laerm;51039;49.696;10.808;2022-12-28T10:10:21;39.01;37.62;40.32;;
64077;Laerm;51039;49.696;10.808;2022-12-28T10:12:48;38.72;37.24;40.18;;
64077;Laerm;51039;49.696;10.808;2022-12-28T10:15:14;38.61;37.18;40.21;;
64077;Laerm;51039;49.696;10.808;2022-12-28T10:17:40;38.36;36.97;39.75;;
64077;Laerm;51039;49.696;10.808;2022-12-28T10:20:14;38.23;36.88;39.56;;
64077;Laerm;51039;49.696;10.808;2022-12-28T10:22:41;37.96;36.28;39.38;;
64077;Laerm;51039;49.696;10.808;2022-12-28T10:25:20;37.70;36.13;39.24;;
64077;Laerm;51039;49.696;10.808;2022-12-28T10:27:46;37.40;35.83;38.97;;
64077;Laerm;51039;49.696;10.808;2022-12-28T10:30:24;37.26;35.84;38.59;;
64077;Laerm;51039;49.696;10.808;2022-12-28T10:32:57;37.20;35.83;38.46;;
64077;Laerm;51039;49.696;10.808;2022-12-28T10:37:48;37.48;35.98;38.71;;
64077;Laerm;51039;49.696;10.808;2022-12-28T10:40:24;37.59;36.09;38.99;;
64077;Laerm;51039;49.696;10.808;2022-12-28T10:42:52;37.77;36.34;39.35;;
64077;Laerm;51039;49.696;10.808;2022-12-28T10:45:20;37.94;36.47;39.28;;
64077;Laerm;51039;49.696;10.808;2022-12-28T10:47:51;38.06;36.37;39.53;;
64077;Laerm;51039;49.696;10.808;2022-12-28T10:50:38;38.17;36.61;39.58;;
64077;Laerm;51039;49.696;10.808;2022-12-28T10:53:15;38.32;36.97;40.33;;
64077;Laerm;51039;49.696;10.808;2022-12-28T10:55:40;38.43;37.01;39.91;;
64077;Laerm;51039;49.696;10.808;2022-12-28T10:58:19;38.57;36.92;40.03;;
64077;Laerm;51039;49.696;10.808;2022-12-28T11:00:56;38.63;37.04;39.95;;
64077;Laerm;51039;49.696;10.808;2022-12-28T11:03:27;38.64;37.36;39.85;;
64077;Laerm;51039;49.696;10.808;2022-12-28T11:06:11;38.62;37.12;39.93;;
64077;Laerm;51039;49.696;10.808;2022-12-28T11:08:38;38.58;37.22;39.91;;
64077;Laerm;51039;49.696;10.808;2022-12-28T11:11:05;38.63;37.14;40.30;;
64077;Laerm;51039;49.696;10.808;2022-12-28T11:13:31;38.63;37.11;39.84;;
64077;Laerm;51039;49.696;10.808;2022-12-28T11:15:58;38.58;37.29;40.02;;
64077;Laerm;51039;49.696;10.808;2022-12-28T11:18:24;38.52;36.76;39.76;;
64077;Laerm;51039;49.696;10.808;2022-12-28T11:20:51;38.41;36.92;39.74;;
64077;Laerm;51039;49.696;10.808;2022-12-28T11:23:25;38.33;36.81;39.64;;
64077;Laerm;51039;49.696;10.808;2022-12-28T11:25:56;38.28;36.76;39.67;;
64077;Laerm;51039;49.696;10.808;2022-12-28T11:28:23;38.17;36.73;39.44;;
64077;Laerm;51039;49.696;10.808;2022-12-28T11:30:50;38.10;36.71;39.55;;
64077;Laerm;51039;49.696;10.808;2022-12-28T11:36:04;38.14;36.78;39.64;;
64077;Laerm;51039;49.696;10.808;2022-12-28T11:38:42;38.14;36.85;39.61;;
64077;Laerm;51039;49.696;10.808;2022-12-28T11:41:57;38.17;36.74;39.62;;
64077;Laerm;51039;49.696;10.808;2022-12-28T11:44:05;38.25;36.81;39.56;;
64077;Laerm;51039;49.696;10.808;2022-12-28T11:49:12;38.29;36.80;39.89;;
64077;Laerm;51039;49.696;10.808;2022-12-28T11:51:46;38.29;36.30;39.52;;
64077;Laerm;51039;49.696;10.808;2022-12-28T11:54:37;38.30;36.81;39.63;;
64077;Laerm;51039;49.696;10.808;2022-12-28T11:57:07;38.34;36.79;39.58;;
64077;Laerm;51039;49.696;10.808;2022-12-28T11:59:36;38.31;36.69;39.97;;
64077;Laerm;51039;49.696;10.808;2022-12-28T12:04:38;38.26;36.82;39.44;;
64077;Laerm;51039;49.696;10.808;2022-12-28T12:07:13;38.26;36.92;39.77;;
64077;Laerm;51039;49.696;10.808;2022-12-28T12:09:42;38.13;36.70;39.34;;
64077;Laerm;51039;49.696;10.808;2022-12-28T12:14:46;38.24;36.99;39.47;;
64077;Laerm;51039;49.696;10.808;2022-12-28T12:17:34;38.33;36.87;39.70;;
64077;Laerm;51039;49.696;10.808;2022-12-28T12:20:06;38.42;37.11;39.77;;
64077;Laerm;51039;49.696;10.808;2022-12-28T12:22:56;38.47;36.79;39.97;;
64077;Laerm;51039;49.696;10.808;2022-12-28T12:25:39;38.52;37.23;39.93;;
64077;Laerm;51039;49.696;10.808;2022-12-28T12:31:14;38.61;37.04;39.89;;
64077;Laerm;51039;49.696;10.808;2022-12-28T12:33:46;38.67;37.38;40.10;;
64077;Laerm;51039;49.696;10.808;2022-12-28T12:36:27;38.69;37.24;40.04;;
64077;Laerm;51039;49.696;10.808;2022-12-28T12:45:11;38.81;37.38;41.18;;
64077;Laerm;51039;49.696;10.808;2022-12-28T12:47:22;38.80;37.20;40.27;;
64077;Laerm;51039;49.696;10.808;2022-12-28T12:53:05;38.74;37.28;40.06;;
64077;Laerm;51039;49.696;10.808;2022-12-28T12:56:09;38.72;37.21;40.08;;
64077;Laerm;51039;49.696;10.808;2022-12-28T13:01:32;38.55;37.15;39.97;;
64077;Laerm;51039;49.696;10.808;2022-12-28T13:04:21;38.48;36.90;39.73;;
64077;Laerm;51039;49.696;10.808;2022-12-28T13:06:51;38.43;36.90;39.74;;
64077;Laerm;51039;49.696;10.808;2022-12-28T13:09:18;38.43;36.91;39.72;;
64077;Laerm;51039;49.696;10.808;2022-12-28T13:11:45;38.36;36.80;39.68;;
64077;Laerm;51039;49.696;10.808;2022-12-28T13:14:22;38.36;36.96;39.63;;
64077;Laerm;51039;49.696;10.808;2022-12-28T13:16:59;38.33;36.92;39.52;;
64077;Laerm;51039;49.696;10.808;2022-12-28T13:19:27;38.35;36.92;39.59;;
64077;Laerm;51039;49.696;10.808;2022-12-28T13:21:54;38.34;36.91;39.81;;
64077;Laerm;51039;49.696;10.808;2022-12-28T13:24:28;38.37;36.97;39.76;;
64077;Laerm;51039;49.696;10.808;2022-12-28T13:26:56;38.35;36.85;39.79;;
64077;Laerm;51039;49.696;10.808;2022-12-28T13:29:25;38.37;36.91;39.81;;
64077;Laerm;51039;49.696;10.808;2022-12-28T13:31:51;38.42;37.03;39.75;;
64077;Laerm;51039;49.696;10.808;2022-12-28T13:34:31;38.48;37.08;39.96;;
64077;Laerm;51039;49.696;10.808;2022-12-28T13:37:04;38.52;36.81;39.68;;
64077;Laerm;51039;49.696;10.808;2022-12-28T13:39:37;38.53;37.22;39.68;;
64077;Laerm;51039;49.696;10.808;2022-12-28T13:42:09;38.57;36.95;39.69;;
64077;Laerm;51039;49.696;10.808;2022-12-28T13:47:37;38.65;37.17;39.94;;
64077;Laerm;51039;49.696;10.808;2022-12-28T13:52:39;38.68;37.18;39.97;;
64077;Laerm;51039;49.696;10.808;2022-12-28T13:55:36;38.73;37.29;39.87;;
64077;Laerm;51039;49.696;10.808;2022-12-28T13:58:02;38.77;37.29;40.21;;
64077;Laerm;51039;49.696;10.808;2022-12-28T14:00:30;38.80;37.22;40.22;;
64077;Laerm;51039;49.696;10.808;2022-12-28T14:02:58;38.81;37.54;40.06;;
64077;Laerm;51039;49.696;10.808;2022-12-28T14:05:28;38.83;37.01;40.19;;
64077;Laerm;51039;49.696;10.808;2022-12-28T14:07:56;38.83;37.22;40.63;;
64077;Laerm;51039;49.696;10.808;2022-12-28T14:10:23;38.84;37.31;40.38;;
64077;Laerm;51039;49.696;10.808;2022-12-28T14:12:49;38.85;37.43;40.25;;
64077;Laerm;51039;49.696;10.808;2022-12-28T14:15:16;38.85;37.01;40.10;;
64077;Laerm;51039;49.696;10.808;2022-12-28T14:17:44;38.89;37.43;40.25;;
64077;Laerm;51039;49.696;10.808;2022-12-28T14:20:10;38.89;37.44;40.04;;
64077;Laerm;51039;49.696;10.808;2022-12-28T14:22:37;38.92;37.54;40.19;;
64077;Laerm;51039;49.696;10.808;2022-12-28T14:25:09;38.96;37.41;40.39;;
64077;Laerm;51039;49.696;10.808;2022-12-28T14:27:41;38.99;37.60;40.32;;
64077;Laerm;51039;49.696;10.808;2022-12-28T14:30:39;39.02;37.40;40.31;;
64077;Laerm;51039;49.696;10.808;2022-12-28T14:33:13;39.06;37.49;40.60;;
64077;Laerm;51039;49.696;10.808;2022-12-28T14:35:49;39.09;37.57;40.45;;
64077;Laerm;51039;49.696;10.808;2022-12-28T14:38:18;39.11;37.75;40.47;;
64077;Laerm;51039;49.696;10.808;2022-12-28T14:40:52;39.12;37.66;40.35;;
64077;Laerm;51039;49.696;10.808;2022-12-28T14:43:22;39.15;37.76;40.61;;
64077;Laerm;51039;49.696;10.808;2022-12-28T14:45:49;39.17;37.77;40.58;;
64077;Laerm;51039;49.696;10.808;2022-12-28T14:48:34;39.17;37.64;40.59;;
64077;Laerm;51039;49.696;10.808;2022-12-28T14:51:22;39.21;37.91;40.72;;
64077;Laerm;51039;49.696;10.808;2022-12-28T14:56:39;39.29;37.78;40.56;;